sensor_id;sensor_type;location;lat;lon;timestamp;P1;durP1;ratioP1;P2;durP2;ratioP2
4011;SDS011;2020;48.682;9.024;2022-08-19T00:02:24;15.93;;;14.43;;
4011;SDS011;2020;48.682;9.024;2022-08-19T00:04:49;18.53;;;15.43;;
4011;SDS011;2020;48.682;9.024;2022-08-19T00:07:17;16.03;;;14.43;;
4011;SDS011;2020;48.682;9.024;2022-08-19T00:09:44;16.33;;;14.83;;
4011;SDS011;2020;48.682;9.024;2022-08-19T00:12:09;15.40;;;14.00;;
4011;SDS011;2020;48.682;9.024;2022-08-19T00:14:35;17.30;;;15.50;;
4011;SDS011;2020;48.682;9.024;2022-08-19T00:17:01;15.80;;;14.10;;
4011;SDS011;2020;48.682;9.024;2022-08-19T00:19:27;16.90;;;15.20;;
4011;SDS011;2020;48.682;9.024;2022-08-19T00:21:53;15.73;;;14.23;;
4011;SDS011;2020;48.682;9.024;2022-08-19T00:24:20;16.20;;;14.60;;
4011;SDS011;2020;48.682;9.024;2022-08-19T00:26:45;15.60;;;14.30;;
4011;SDS011;2020;48.682;9.024;2022-08-19T00:29:11;17.10;;;15.33;;
4011;SDS011;2020;48.682;9.024;2022-08-19T00:31:39;17.17;;;15.40;;
4011;SDS011;2020;48.682;9.024;2022-08-19T00:34:06;17.60;;;15.90;;
4011;SDS011;2020;48.682;9.024;2022-08-19T00:36:32;16.10;;;14.60;;
4011;SDS011;2020;48.682;9.024;2022-08-19T00:38:58;17.33;;;15.53;;
4011;SDS011;2020;48.682;9.024;2022-08-19T00:41:24;17.70;;;16.00;;
4011;SDS011;2020;48.682;9.024;2022-08-19T00:44:24;18.30;;;16.50;;
4011;SDS011;2020;48.682;9.024;2022-08-19T00:46:45;20.17;;;16.10;;
4011;SDS011;2020;48.682;9.024;2022-08-19T00:49:19;17.03;;;15.27;;
4011;SDS011;2020;48.682;9.024;2022-08-19T00:51:53;20.17;;;17.90;;
4011;SDS011;2020;48.682;9.024;2022-08-19T00:54:23;18.43;;;16.50;;
4011;SDS011;2020;48.682;9.024;2022-08-19T00:56:48;18.13;;;16.30;;
4011;SDS011;2020;48.682;9.024;2022-08-19T00:59:15;19.40;;;17.50;;
4011;SDS011;2020;48.682;9.024;2022-08-19T01:01:43;19.27;;;17.07;;
4011;SDS011;2020;48.682;9.024;2022-08-19T01:04:10;19.37;;;17.27;;
4011;SDS011;2020;48.682;9.024;2022-08-19T01:06:36;20.80;;;17.33;;
4011;SDS011;2020;48.682;9.024;2022-08-19T01:09:03;19.23;;;17.43;;
4011;SDS011;2020;48.682;9.024;2022-08-19T01:11:29;19.93;;;17.83;;
4011;SDS011;2020;48.682;9.024;2022-08-19T01:13:59;19.20;;;16.90;;
4011;SDS011;2020;48.682;9.024;2022-08-19T01:16:25;18.00;;;16.20;;
4011;SDS011;2020;48.682;9.024;2022-08-19T01:18:53;20.20;;;18.30;;
4011;SDS011;2020;48.682;9.024;2022-08-19T01:21:31;18.90;;;17.20;;
4011;SDS011;2020;48.682;9.024;2022-08-19T01:24:02;18.10;;;16.10;;
4011;SDS011;2020;48.682;9.024;2022-08-19T01:26:28;18.97;;;15.60;;
4011;SDS011;2020;48.682;9.024;2022-08-19T01:28:55;18.93;;;16.93;;
4011;SDS011;2020;48.682;9.024;2022-08-19T01:31:23;20.10;;;17.70;;
4011;SDS011;2020;48.682;9.024;2022-08-19T01:33:52;17.90;;;16.20;;
4011;SDS011;2020;48.682;9.024;2022-08-19T01:36:36;20.37;;;18.27;;
4011;SDS011;2020;48.682;9.024;2022-08-19T01:39:07;20.43;;;18.17;;
4011;SDS011;2020;48.682;9.024;2022-08-19T01:41:34;23.73;;;18.07;;
4011;SDS011;2020;48.682;9.024;2022-08-19T01:44:00;18.27;;;16.23;;
4011;SDS011;2020;48.682;9.024;2022-08-19T01:46:28;21.00;;;19.00;;
4011;SDS011;2020;48.682;9.024;2022-08-19T01:48:54;20.53;;;18.30;;
4011;SDS011;2020;48.682;9.024;2022-08-19T01:51:20;21.50;;;18.87;;
4011;SDS011;2020;48.682;9.024;2022-08-19T01:53:49;22.50;;;20.10;;
4011;SDS011;2020;48.682;9.024;2022-08-19T01:56:15;20.53;;;18.20;;
4011;SDS011;2020;48.682;9.024;2022-08-19T01:58:43;25.80;;;21.07;;
4011;SDS011;2020;48.682;9.024;2022-08-19T02:01:13;21.80;;;19.50;;
4011;SDS011;2020;48.682;9.024;2022-08-19T02:03:38;21.57;;;19.40;;
4011;SDS011;2020;48.682;9.024;2022-08-19T02:06:04;20.90;;;18.80;;
4011;SDS011;2020;48.682;9.024;2022-08-19T02:08:30;23.93;;;19.17;;
4011;SDS011;2020;48.682;9.024;2022-08-19T02:10:56;21.30;;;18.73;;
4011;SDS011;2020;48.682;9.024;2022-08-19T02:13:22;21.63;;;19.33;;
4011;SDS011;2020;48.682;9.024;2022-08-19T02:15:49;21.17;;;18.60;;
4011;SDS011;2020;48.682;9.024;2022-08-19T02:18:14;22.93;;;20.53;;
4011;SDS011;2020;48.682;9.024;2022-08-19T02:20:40;20.27;;;18.03;;
4011;SDS011;2020;48.682;9.024;2022-08-19T02:23:08;23.50;;;19.67;;
4011;SDS011;2020;48.682;9.024;2022-08-19T02:25:34;24.03;;;21.50;;
4011;SDS011;2020;48.682;9.024;2022-08-19T02:27:59;23.13;;;20.73;;
4011;SDS011;2020;48.682;9.024;2022-08-19T02:30:25;20.73;;;18.53;;
4011;SDS011;2020;48.682;9.024;2022-08-19T02:32:51;25.07;;;19.90;;
4011;SDS011;2020;48.682;9.024;2022-08-19T02:35:17;22.47;;;18.43;;
4011;SDS011;2020;48.682;9.024;2022-08-19T02:37:43;21.93;;;19.57;;
4011;SDS011;2020;48.682;9.024;2022-08-19T02:40:28;21.27;;;18.50;;
4011;SDS011;2020;48.682;9.024;2022-08-19T02:42:55;21.70;;;19.37;;
4011;SDS011;2020;48.682;9.024;2022-08-19T02:45:20;22.93;;;20.60;;
4011;SDS011;2020;48.682;9.024;2022-08-19T02:47:46;22.47;;;20.00;;
4011;SDS011;2020;48.682;9.024;2022-08-19T02:50:11;21.77;;;19.67;;
4011;SDS011;2020;48.682;9.024;2022-08-19T02:52:38;23.40;;;20.90;;
4011;SDS011;2020;48.682;9.024;2022-08-19T02:55:03;21.43;;;19.30;;
4011;SDS011;2020;48.682;9.024;2022-08-19T02:57:30;21.60;;;19.30;;
4011;SDS011;2020;48.682;9.024;2022-08-19T02:59:56;25.10;;;22.17;;
4011;SDS011;2020;48.682;9.024;2022-08-19T03:02:22;21.87;;;19.70;;
4011;SDS011;2020;48.682;9.024;2022-08-19T03:04:47;24.27;;;20.90;;
4011;SDS011;2020;48.682;9.024;2022-08-19T03:07:13;24.30;;;21.47;;
4011;SDS011;2020;48.682;9.024;2022-08-19T03:09:40;24.43;;;21.63;;
4011;SDS011;2020;48.682;9.024;2022-08-19T03:12:08;22.50;;;20.10;;
4011;SDS011;2020;48.682;9.024;2022-08-19T03:14:34;20.20;;;18.17;;
4011;SDS011;2020;48.682;9.024;2022-08-19T03:17:00;24.67;;;21.40;;
4011;SDS011;2020;48.682;9.024;2022-08-19T03:19:25;23.80;;;21.30;;
4011;SDS011;2020;48.682;9.024;2022-08-19T03:21:52;24.17;;;21.77;;
4011;SDS011;2020;48.682;9.024;2022-08-19T03:24:17;26.90;;;23.67;;
4011;SDS011;2020;48.682;9.024;2022-08-19T03:26:46;23.27;;;20.83;;
4011;SDS011;2020;48.682;9.024;2022-08-19T03:29:14;23.57;;;21.07;;
4011;SDS011;2020;48.682;9.024;2022-08-19T03:31:41;23.87;;;21.30;;
4011;SDS011;2020;48.682;9.024;2022-08-19T03:34:08;25.30;;;21.57;;
4011;SDS011;2020;48.682;9.024;2022-08-19T03:36:36;25.47;;;22.70;;
4011;SDS011;2020;48.682;9.024;2022-08-19T03:39:03;25.47;;;22.73;;
4011;SDS011;2020;48.682;9.024;2022-08-19T03:41:32;26.57;;;23.80;;
4011;SDS011;2020;48.682;9.024;2022-08-19T03:44:02;27.40;;;23.70;;
4011;SDS011;2020;48.682;9.024;2022-08-19T03:46:29;27.57;;;22.47;;
4011;SDS011;2020;48.682;9.024;2022-08-19T03:48:57;24.47;;;21.77;;
4011;SDS011;2020;48.682;9.024;2022-08-19T03:51:25;24.87;;;22.20;;
4011;SDS011;2020;48.682;9.024;2022-08-19T03:53:59;26.57;;;23.77;;
4011;SDS011;2020;48.682;9.024;2022-08-19T03:56:26;24.13;;;21.60;;
4011;SDS011;2020;48.682;9.024;2022-08-19T03:58:55;25.80;;;22.03;;
4011;SDS011;2020;48.682;9.024;2022-08-19T04:01:22;32.23;;;24.07;;
4011;SDS011;2020;48.682;9.024;2022-08-19T04:03:51;27.63;;;23.87;;
4011;SDS011;2020;48.682;9.024;2022-08-19T04:06:22;26.37;;;23.57;;
4011;SDS011;2020;48.682;9.024;2022-08-19T04:08:51;26.73;;;22.50;;
4011;SDS011;2020;48.682;9.024;2022-08-19T04:11:20;26.60;;;22.40;;
4011;SDS011;2020;48.682;9.024;2022-08-19T04:13:51;30.30;;;23.97;;
4011;SDS011;2020;48.682;9.024;2022-08-19T04:16:18;28.50;;;25.47;;
4011;SDS011;2020;48.682;9.024;2022-08-19T04:18:45;29.13;;;23.70;;
4011;SDS011;2020;48.682;9.024;2022-08-19T04:21:16;26.93;;;24.03;;
4011;SDS011;2020;48.682;9.024;2022-08-19T04:23:43;31.67;;;26.50;;
4011;SDS011;2020;48.682;9.024;2022-08-19T04:26:12;30.43;;;24.43;;
4011;SDS011;2020;48.682;9.024;2022-08-19T04:28:39;27.93;;;24.80;;
4011;SDS011;2020;48.682;9.024;2022-08-19T04:31:04;28.13;;;23.23;;
4011;SDS011;2020;48.682;9.024;2022-08-19T04:33:29;29.60;;;25.70;;
4011;SDS011;2020;48.682;9.024;2022-08-19T04:35:55;30.77;;;26.10;;
4011;SDS011;2020;48.682;9.024;2022-08-19T04:38:23;28.00;;;24.80;;
4011;SDS011;2020;48.682;9.024;2022-08-19T04:40:50;27.73;;;24.87;;
4011;SDS011;2020;48.682;9.024;2022-08-19T04:43:35;30.13;;;24.60;;
4011;SDS011;2020;48.682;9.024;2022-08-19T04:46:09;27.70;;;24.47;;
4011;SDS011;2020;48.682;9.024;2022-08-19T04:48:36;28.37;;;25.37;;
4011;SDS011;2020;48.682;9.024;2022-08-19T04:51:05;30.13;;;26.87;;
4011;SDS011;2020;48.682;9.024;2022-08-19T04:53:34;30.87;;;26.67;;
4011;SDS011;2020;48.682;9.024;2022-08-19T04:56:04;27.53;;;24.73;;
4011;SDS011;2020;48.682;9.024;2022-08-19T04:58:33;28.90;;;25.77;;
4011;SDS011;2020;48.682;9.024;2022-08-19T05:00:59;30.93;;;25.37;;
4011;SDS011;2020;48.682;9.024;2022-08-19T05:03:27;34.30;;;27.30;;
4011;SDS011;2020;48.682;9.024;2022-08-19T05:05:58;32.57;;;26.93;;
4011;SDS011;2020;48.682;9.024;2022-08-19T05:08:35;32.57;;;28.17;;
4011;SDS011;2020;48.682;9.024;2022-08-19T05:11:01;29.57;;;26.10;;
4011;SDS011;2020;48.682;9.024;2022-08-19T05:13:32;31.23;;;25.30;;
4011;SDS011;2020;48.682;9.024;2022-08-19T05:15:57;30.47;;;26.17;;
4011;SDS011;2020;48.682;9.024;2022-08-19T05:18:23;33.47;;;27.50;;
4011;SDS011;2020;48.682;9.024;2022-08-19T05:21:08;28.83;;;25.27;;
4011;SDS011;2020;48.682;9.024;2022-08-19T05:23:53;29.27;;;26.23;;
4011;SDS011;2020;48.682;9.024;2022-08-19T05:26:18;32.70;;;25.77;;
4011;SDS011;2020;48.682;9.024;2022-08-19T05:28:44;31.00;;;27.10;;
4011;SDS011;2020;48.682;9.024;2022-08-19T05:31:09;32.27;;;25.33;;
4011;SDS011;2020;48.682;9.024;2022-08-19T05:33:34;32.17;;;27.17;;
4011;SDS011;2020;48.682;9.024;2022-08-19T05:36:00;28.73;;;25.60;;
4011;SDS011;2020;48.682;9.024;2022-08-19T05:38:27;31.60;;;27.70;;
4011;SDS011;2020;48.682;9.024;2022-08-19T05:40:55;30.47;;;26.43;;
4011;SDS011;2020;48.682;9.024;2022-08-19T05:43:20;31.47;;;25.20;;
4011;SDS011;2020;48.682;9.024;2022-08-19T05:45:45;29.17;;;25.97;;
4011;SDS011;2020;48.682;9.024;2022-08-19T05:48:11;30.33;;;25.53;;
4011;SDS011;2020;48.682;9.024;2022-08-19T05:50:41;28.53;;;24.93;;
4011;SDS011;2020;48.682;9.024;2022-08-19T05:53:07;28.20;;;25.30;;
4011;SDS011;2020;48.682;9.024;2022-08-19T05:55:34;27.77;;;24.73;;
4011;SDS011;2020;48.682;9.024;2022-08-19T05:57:59;29.27;;;23.87;;
4011;SDS011;2020;48.682;9.024;2022-08-19T06:00:26;29.87;;;26.40;;
4011;SDS011;2020;48.682;9.024;2022-08-19T06:02:51;27.00;;;24.20;;
4011;SDS011;2020;48.682;9.024;2022-08-19T06:05:17;30.43;;;23.77;;
4011;SDS011;2020;48.682;9.024;2022-08-19T06:07:42;31.60;;;26.70;;
4011;SDS011;2020;48.682;9.024;2022-08-19T06:10:09;31.40;;;25.70;;
4011;SDS011;2020;48.682;9.024;2022-08-19T06:12:36;27.07;;;24.30;;
4011;SDS011;2020;48.682;9.024;2022-08-19T06:15:04;30.73;;;26.30;;
4011;SDS011;2020;48.682;9.024;2022-08-19T06:17:31;28.40;;;25.30;;
4011;SDS011;2020;48.682;9.024;2022-08-19T06:19:59;27.70;;;24.80;;
4011;SDS011;2020;48.682;9.024;2022-08-19T06:22:25;26.87;;;23.97;;
4011;SDS011;2020;48.682;9.024;2022-08-19T06:24:50;32.00;;;25.83;;
4011;SDS011;2020;48.682;9.024;2022-08-19T06:27:18;27.37;;;23.50;;
4011;SDS011;2020;48.682;9.024;2022-08-19T06:29:45;28.57;;;25.47;;
4011;SDS011;2020;48.682;9.024;2022-08-19T06:32:12;29.97;;;24.77;;
4011;SDS011;2020;48.682;9.024;2022-08-19T06:34:40;27.23;;;23.60;;
4011;SDS011;2020;48.682;9.024;2022-08-19T06:37:05;28.37;;;25.40;;
4011;SDS011;2020;48.682;9.024;2022-08-19T06:39:33;30.47;;;26.50;;
4011;SDS011;2020;48.682;9.024;2022-08-19T06:42:03;28.47;;;24.83;;
4011;SDS011;2020;48.682;9.024;2022-08-19T06:44:33;29.57;;;26.30;;
4011;SDS011;2020;48.682;9.024;2022-08-19T06:47:02;28.17;;;23.60;;
4011;SDS011;2020;48.682;9.024;2022-08-19T06:49:29;28.67;;;25.13;;
4011;SDS011;2020;48.682;9.024;2022-08-19T06:51:56;26.27;;;23.60;;
4011;SDS011;2020;48.682;9.024;2022-08-19T06:54:22;28.20;;;23.70;;
4011;SDS011;2020;48.682;9.024;2022-08-19T06:56:48;27.73;;;22.27;;
4011;SDS011;2020;48.682;9.024;2022-08-19T06:59:15;26.03;;;23.00;;
4011;SDS011;2020;48.682;9.024;2022-08-19T07:01:44;26.30;;;23.60;;
4011;SDS011;2020;48.682;9.024;2022-08-19T07:04:12;26.17;;;23.57;;
4011;SDS011;2020;48.682;9.024;2022-08-19T07:06:38;28.33;;;22.30;;
4011;SDS011;2020;48.682;9.024;2022-08-19T07:09:04;27.83;;;22.63;;
4011;SDS011;2020;48.682;9.024;2022-08-19T07:11:30;26.23;;;23.43;;
4011;SDS011;2020;48.682;9.024;2022-08-19T07:13:56;26.17;;;21.17;;
4011;SDS011;2020;48.682;9.024;2022-08-19T07:16:21;25.70;;;22.90;;
4011;SDS011;2020;48.682;9.024;2022-08-19T07:18:49;25.53;;;22.93;;
4011;SDS011;2020;48.682;9.024;2022-08-19T07:21:17;25.10;;;21.93;;
4011;SDS011;2020;48.682;9.024;2022-08-19T07:23:45;23.90;;;21.43;;
4011;SDS011;2020;48.682;9.024;2022-08-19T07:26:13;23.40;;;20.97;;
4011;SDS011;2020;48.682;9.024;2022-08-19T07:28:38;23.20;;;20.73;;
4011;SDS011;2020;48.682;9.024;2022-08-19T07:31:05;25.47;;;22.87;;
4011;SDS011;2020;48.682;9.024;2022-08-19T07:33:33;24.93;;;22.17;;
4011;SDS011;2020;48.682;9.024;2022-08-19T07:36:00;27.40;;;22.57;;
4011;SDS011;2020;48.682;9.024;2022-08-19T07:38:26;22.73;;;20.53;;
4011;SDS011;2020;48.682;9.024;2022-08-19T07:40:51;22.90;;;20.60;;
4011;SDS011;2020;48.682;9.024;2022-08-19T07:43:16;26.50;;;21.37;;
4011;SDS011;2020;48.682;9.024;2022-08-19T07:45:50;23.23;;;20.73;;
4011;SDS011;2020;48.682;9.024;2022-08-19T07:48:25;23.93;;;21.23;;
4011;SDS011;2020;48.682;9.024;2022-08-19T07:50:56;25.30;;;21.30;;
4011;SDS011;2020;48.682;9.024;2022-08-19T07:53:23;23.17;;;20.90;;
4011;SDS011;2020;48.682;9.024;2022-08-19T07:55:49;23.50;;;21.00;;
4011;SDS011;2020;48.682;9.024;2022-08-19T07:58:17;22.30;;;19.93;;
4011;SDS011;2020;48.682;9.024;2022-08-19T08:00:45;24.83;;;19.10;;
4011;SDS011;2020;48.682;9.024;2022-08-19T08:03:12;25.10;;;20.80;;
4011;SDS011;2020;48.682;9.024;2022-08-19T08:05:38;24.00;;;21.50;;
4011;SDS011;2020;48.682;9.024;2022-08-19T08:08:22;21.50;;;19.40;;
4011;SDS011;2020;48.682;9.024;2022-08-19T08:11:06;22.00;;;19.70;;
4011;SDS011;2020;48.682;9.024;2022-08-19T08:13:32;24.23;;;20.70;;
4011;SDS011;2020;48.682;9.024;2022-08-19T08:16:00;22.57;;;20.17;;
4011;SDS011;2020;48.682;9.024;2022-08-19T08:18:26;22.60;;;20.30;;
4011;SDS011;2020;48.682;9.024;2022-08-19T08:20:52;24.20;;;20.93;;
4011;SDS011;2020;48.682;9.024;2022-08-19T08:23:17;24.37;;;21.17;;
4011;SDS011;2020;48.682;9.024;2022-08-19T08:25:50;21.67;;;19.57;;
4011;SDS011;2020;48.682;9.024;2022-08-19T08:28:18;24.17;;;21.47;;
4011;SDS011;2020;48.682;9.024;2022-08-19T08:30:44;24.33;;;20.17;;
4011;SDS011;2020;48.682;9.024;2022-08-19T08:33:12;23.47;;;21.07;;
4011;SDS011;2020;48.682;9.024;2022-08-19T08:35:39;24.43;;;21.87;;
4011;SDS011;2020;48.682;9.024;2022-08-19T08:38:06;22.33;;;20.07;;
4011;SDS011;2020;48.682;9.024;2022-08-19T08:43:07;22.87;;;20.47;;
4011;SDS011;2020;48.682;9.024;2022-08-19T08:45:44;24.10;;;21.77;;
4011;SDS011;2020;48.682;9.024;2022-08-19T08:48:17;27.30;;;22.20;;
4011;SDS011;2020;48.682;9.024;2022-08-19T08:50:47;22.23;;;20.13;;
4011;SDS011;2020;48.682;9.024;2022-08-19T08:53:18;22.23;;;19.37;;
4011;SDS011;2020;48.682;9.024;2022-08-19T08:55:45;24.57;;;22.00;;
4011;SDS011;2020;48.682;9.024;2022-08-19T08:58:12;22.90;;;18.90;;
4011;SDS011;2020;48.682;9.024;2022-08-19T09:00:44;22.60;;;20.57;;
4011;SDS011;2020;48.682;9.024;2022-08-19T09:03:29;22.03;;;19.93;;
4011;SDS011;2020;48.682;9.024;2022-08-19T09:05:56;24.13;;;19.83;;
4011;SDS011;2020;48.682;9.024;2022-08-19T09:10:59;21.17;;;19.03;;
4011;SDS011;2020;48.682;9.024;2022-08-19T09:13:33;21.23;;;19.13;;
4011;SDS011;2020;48.682;9.024;2022-08-19T09:16:05;20.20;;;18.30;;
4011;SDS011;2020;48.682;9.024;2022-08-19T09:18:40;20.33;;;18.27;;
4011;SDS011;2020;48.682;9.024;2022-08-19T09:21:12;20.00;;;18.10;;
4011;SDS011;2020;48.682;9.024;2022-08-19T09:23:38;20.77;;;18.57;;
4011;SDS011;2020;48.682;9.024;2022-08-19T09:26:10;19.63;;;17.63;;
4011;SDS011;2020;48.682;9.024;2022-08-19T09:28:38;21.37;;;19.27;;
4011;SDS011;2020;48.682;9.024;2022-08-19T09:31:08;19.47;;;17.77;;
4011;SDS011;2020;48.682;9.024;2022-08-19T09:33:55;22.50;;;20.30;;
4011;SDS011;2020;48.682;9.024;2022-08-19T09:36:24;20.80;;;18.70;;
4011;SDS011;2020;48.682;9.024;2022-08-19T09:38:51;19.77;;;17.93;;
4011;SDS011;2020;48.682;9.024;2022-08-19T09:41:18;20.53;;;17.60;;
4011;SDS011;2020;48.682;9.024;2022-08-19T09:43:46;20.70;;;18.63;;
4011;SDS011;2020;48.682;9.024;2022-08-19T09:46:17;19.80;;;17.90;;
4011;SDS011;2020;48.682;9.024;2022-08-19T09:48:46;20.43;;;17.90;;
4011;SDS011;2020;48.682;9.024;2022-08-19T09:51:16;21.20;;;18.70;;
4011;SDS011;2020;48.682;9.024;2022-08-19T09:53:46;19.60;;;17.80;;
4011;SDS011;2020;48.682;9.024;2022-08-19T09:56:14;17.80;;;16.10;;
4011;SDS011;2020;48.682;9.024;2022-08-19T09:58:41;21.47;;;19.47;;
4011;SDS011;2020;48.682;9.024;2022-08-19T10:01:06;22.03;;;18.97;;
4011;SDS011;2020;48.682;9.024;2022-08-19T10:03:32;19.50;;;17.70;;
4011;SDS011;2020;48.682;9.024;2022-08-19T10:06:00;19.77;;;18.03;;
4011;SDS011;2020;48.682;9.024;2022-08-19T10:08:28;20.20;;;18.40;;
4011;SDS011;2020;48.682;9.024;2022-08-19T10:10:56;20.40;;;18.40;;
4011;SDS011;2020;48.682;9.024;2022-08-19T10:13:23;19.90;;;17.90;;
4011;SDS011;2020;48.682;9.024;2022-08-19T10:15:51;18.97;;;17.00;;
4011;SDS011;2020;48.682;9.024;2022-08-19T10:18:19;19.10;;;17.30;;
4011;SDS011;2020;48.682;9.024;2022-08-19T10:20:46;18.50;;;16.87;;
4011;SDS011;2020;48.682;9.024;2022-08-19T10:23:13;25.13;;;17.20;;
4011;SDS011;2020;48.682;9.024;2022-08-19T10:25:40;18.83;;;17.23;;
4011;SDS011;2020;48.682;9.024;2022-08-19T10:28:06;18.53;;;16.57;;
4011;SDS011;2020;48.682;9.024;2022-08-19T10:30:32;18.37;;;16.57;;
4011;SDS011;2020;48.682;9.024;2022-08-19T10:32:57;18.07;;;16.37;;
4011;SDS011;2020;48.682;9.024;2022-08-19T10:35:23;16.73;;;15.33;;
4011;SDS011;2020;48.682;9.024;2022-08-19T10:37:49;18.77;;;16.47;;
4011;SDS011;2020;48.682;9.024;2022-08-19T10:40:15;16.83;;;15.33;;
4011;SDS011;2020;48.682;9.024;2022-08-19T10:42:40;16.63;;;15.10;;
4011;SDS011;2020;48.682;9.024;2022-08-19T10:45:05;16.27;;;14.87;;
4011;SDS011;2020;48.682;9.024;2022-08-19T10:47:31;16.13;;;14.63;;
4011;SDS011;2020;48.682;9.024;2022-08-19T10:49:57;14.97;;;13.67;;
4011;SDS011;2020;48.682;9.024;2022-08-19T10:52:45;14.60;;;13.30;;
4011;SDS011;2020;48.682;9.024;2022-08-19T10:55:13;14.27;;;13.07;;
4011;SDS011;2020;48.682;9.024;2022-08-19T10:57:57;12.93;;;11.77;;
4011;SDS011;2020;48.682;9.024;2022-08-19T11:00:23;13.83;;;12.53;;
4011;SDS011;2020;48.682;9.024;2022-08-19T11:02:49;15.73;;;12.23;;
4011;SDS011;2020;48.682;9.024;2022-08-19T11:05:15;13.00;;;11.97;;
4011;SDS011;2020;48.682;9.024;2022-08-19T11:07:42;14.20;;;11.67;;
4011;SDS011;2020;48.682;9.024;2022-08-19T11:10:10;13.37;;;12.03;;
4011;SDS011;2020;48.682;9.024;2022-08-19T11:12:37;13.27;;;12.17;;
4011;SDS011;2020;48.682;9.024;2022-08-19T11:15:04;12.80;;;11.93;;
4011;SDS011;2020;48.682;9.024;2022-08-19T11:17:31;13.13;;;11.93;;
4011;SDS011;2020;48.682;9.024;2022-08-19T11:19:56;13.67;;;12.33;;
4011;SDS011;2020;48.682;9.024;2022-08-19T11:22:21;14.27;;;12.20;;
4011;SDS011;2020;48.682;9.024;2022-08-19T11:24:47;14.03;;;12.73;;
4011;SDS011;2020;48.682;9.024;2022-08-19T11:27:12;13.07;;;12.00;;
4011;SDS011;2020;48.682;9.024;2022-08-19T11:29:38;12.57;;;11.37;;
4011;SDS011;2020;48.682;9.024;2022-08-19T11:32:07;14.03;;;12.83;;
4011;SDS011;2020;48.682;9.024;2022-08-19T11:34:34;12.70;;;11.40;;
4011;SDS011;2020;48.682;9.024;2022-08-19T11:37:01;11.53;;;10.73;;
4011;SDS011;2020;48.682;9.024;2022-08-19T11:39:29;15.73;;;12.70;;
4011;SDS011;2020;48.682;9.024;2022-08-19T11:41:57;11.50;;;10.47;;
4011;SDS011;2020;48.682;9.024;2022-08-19T11:44:23;13.77;;;12.20;;
4011;SDS011;2020;48.682;9.024;2022-08-19T11:46:49;11.63;;;10.80;;
4011;SDS011;2020;48.682;9.024;2022-08-19T11:49:15;12.20;;;11.40;;
4011;SDS011;2020;48.682;9.024;2022-08-19T11:51:43;11.93;;;11.07;;
4011;SDS011;2020;48.682;9.024;2022-08-19T11:54:09;12.23;;;11.20;;
4011;SDS011;2020;48.682;9.024;2022-08-19T11:56:36;13.90;;;11.30;;
4011;SDS011;2020;48.682;9.024;2022-08-19T11:59:02;12.43;;;11.43;;
4011;SDS011;2020;48.682;9.024;2022-08-19T12:01:28;11.50;;;10.60;;
4011;SDS011;2020;48.682;9.024;2022-08-19T12:03:54;12.23;;;10.67;;
4011;SDS011;2020;48.682;9.024;2022-08-19T12:06:22;11.40;;;10.50;;
4011;SDS011;2020;48.682;9.024;2022-08-19T12:08:53;10.93;;;10.13;;
4011;SDS011;2020;48.682;9.024;2022-08-19T12:11:20;8.90;;;8.40;;
4011;SDS011;2020;48.682;9.024;2022-08-19T12:13:45;10.47;;;9.63;;
4011;SDS011;2020;48.682;9.024;2022-08-19T12:16:12;8.87;;;8.37;;
4011;SDS011;2020;48.682;9.024;2022-08-19T12:18:41;8.53;;;8.03;;
4011;SDS011;2020;48.682;9.024;2022-08-19T12:21:16;10.20;;;9.30;;
4011;SDS011;2020;48.682;9.024;2022-08-19T12:23:46;9.97;;;9.17;;
4011;SDS011;2020;48.682;9.024;2022-08-19T12:26:11;9.20;;;8.70;;
4011;SDS011;2020;48.682;9.024;2022-08-19T12:28:37;9.33;;;8.80;;
4011;SDS011;2020;48.682;9.024;2022-08-19T12:31:03;9.43;;;8.90;;
4011;SDS011;2020;48.682;9.024;2022-08-19T12:33:29;9.77;;;8.97;;
4011;SDS011;2020;48.682;9.024;2022-08-19T12:35:54;8.77;;;8.20;;
4011;SDS011;2020;48.682;9.024;2022-08-19T12:38:24;9.90;;;9.03;;
4011;SDS011;2020;48.682;9.024;2022-08-19T12:40:49;8.60;;;8.03;;
4011;SDS011;2020;48.682;9.024;2022-08-19T12:43:17;7.80;;;7.40;;
4011;SDS011;2020;48.682;9.024;2022-08-19T12:45:43;9.23;;;8.63;;
4011;SDS011;2020;48.682;9.024;2022-08-19T12:48:09;8.93;;;8.10;;
4011;SDS011;2020;48.682;9.024;2022-08-19T12:50:35;8.47;;;8.07;;
4011;SDS011;2020;48.682;9.024;2022-08-19T12:53:00;8.20;;;7.90;;
4011;SDS011;2020;48.682;9.024;2022-08-19T12:55:26;7.60;;;7.20;;
4011;SDS011;2020;48.682;9.024;2022-08-19T12:57:53;7.93;;;7.43;;
4011;SDS011;2020;48.682;9.024;2022-08-19T13:00:19;8.13;;;7.50;;
4011;SDS011;2020;48.682;9.024;2022-08-19T13:02:46;9.30;;;8.70;;
4011;SDS011;2020;48.682;9.024;2022-08-19T13:05:15;8.40;;;7.80;;
4011;SDS011;2020;48.682;9.024;2022-08-19T13:07:45;9.10;;;8.40;;
4011;SDS011;2020;48.682;9.024;2022-08-19T13:10:11;8.57;;;8.03;;
4011;SDS011;2020;48.682;9.024;2022-08-19T13:12:40;9.50;;;8.80;;
4011;SDS011;2020;48.682;9.024;2022-08-19T13:15:06;8.60;;;8.20;;
4011;SDS011;2020;48.682;9.024;2022-08-19T13:17:33;10.20;;;9.50;;
4011;SDS011;2020;48.682;9.024;2022-08-19T13:19:58;8.10;;;7.60;;
4011;SDS011;2020;48.682;9.024;2022-08-19T13:22:24;8.90;;;8.30;;
4011;SDS011;2020;48.682;9.024;2022-08-19T13:24:49;8.80;;;8.20;;
4011;SDS011;2020;48.682;9.024;2022-08-19T13:27:15;8.87;;;8.37;;
4011;SDS011;2020;48.682;9.024;2022-08-19T13:29:40;8.30;;;8.00;;
4011;SDS011;2020;48.682;9.024;2022-08-19T13:32:25;9.00;;;8.50;;
4011;SDS011;2020;48.682;9.024;2022-08-19T13:35:09;8.77;;;8.17;;
4011;SDS011;2020;48.682;9.024;2022-08-19T13:37:34;9.63;;;8.90;;
4011;SDS011;2020;48.682;9.024;2022-08-19T13:42:47;9.20;;;8.57;;
4011;SDS011;2020;48.682;9.024;2022-08-19T13:45:15;8.50;;;8.10;;
4011;SDS011;2020;48.682;9.024;2022-08-19T13:47:44;9.07;;;8.50;;
4011;SDS011;2020;48.682;9.024;2022-08-19T13:50:11;9.40;;;8.73;;
4011;SDS011;2020;48.682;9.024;2022-08-19T13:52:38;11.00;;;10.40;;
4011;SDS011;2020;48.682;9.024;2022-08-19T13:55:05;11.67;;;10.87;;
4011;SDS011;2020;48.682;9.024;2022-08-19T13:57:31;10.63;;;9.73;;
4011;SDS011;2020;48.682;9.024;2022-08-19T13:59:59;11.93;;;11.17;;
4011;SDS011;2020;48.682;9.024;2022-08-19T14:02:26;10.93;;;10.23;;
4011;SDS011;2020;48.682;9.024;2022-08-19T14:04:51;11.27;;;10.67;;
4011;SDS011;2020;48.682;9.024;2022-08-19T14:07:17;11.37;;;10.70;;
4011;SDS011;2020;48.682;9.024;2022-08-19T14:09:42;12.53;;;11.67;;
4011;SDS011;2020;48.682;9.024;2022-08-19T14:12:07;12.20;;;11.50;;
4011;SDS011;2020;48.682;9.024;2022-08-19T14:14:36;11.20;;;10.50;;
4011;SDS011;2020;48.682;9.024;2022-08-19T14:17:07;11.37;;;10.63;;
4011;SDS011;2020;48.682;9.024;2022-08-19T14:19:34;11.53;;;10.43;;
4011;SDS011;2020;48.682;9.024;2022-08-19T14:21:59;10.90;;;10.30;;
4011;SDS011;2020;48.682;9.024;2022-08-19T14:24:24;11.20;;;10.30;;
4011;SDS011;2020;48.682;9.024;2022-08-19T14:26:50;10.20;;;9.60;;
4011;SDS011;2020;48.682;9.024;2022-08-19T14:29:15;11.17;;;10.57;;
4011;SDS011;2020;48.682;9.024;2022-08-19T14:31:41;11.20;;;10.60;;
4011;SDS011;2020;48.682;9.024;2022-08-19T14:34:08;10.70;;;10.10;;
4011;SDS011;2020;48.682;9.024;2022-08-19T14:36:34;10.60;;;9.90;;
4011;SDS011;2020;48.682;9.024;2022-08-19T14:39:01;17.57;;;10.90;;
4011;SDS011;2020;48.682;9.024;2022-08-19T14:41:26;11.87;;;10.97;;
4011;SDS011;2020;48.682;9.024;2022-08-19T14:43:52;10.87;;;10.20;;
4011;SDS011;2020;48.682;9.024;2022-08-19T14:46:23;10.93;;;10.23;;
4011;SDS011;2020;48.682;9.024;2022-08-19T14:48:50;11.27;;;10.57;;
4011;SDS011;2020;48.682;9.024;2022-08-19T14:51:15;10.13;;;9.60;;
4011;SDS011;2020;48.682;9.024;2022-08-19T14:53:41;10.57;;;9.90;;
4011;SDS011;2020;48.682;9.024;2022-08-19T14:56:10;10.70;;;10.20;;
4011;SDS011;2020;48.682;9.024;2022-08-19T14:58:38;10.23;;;9.70;;
4011;SDS011;2020;48.682;9.024;2022-08-19T15:01:07;10.43;;;9.77;;
4011;SDS011;2020;48.682;9.024;2022-08-19T15:03:33;10.90;;;10.20;;